sensor_id;sensor_type;location;lat;lon;timestamp;P1;durP1;ratioP1;P2;durP2;ratioP2
28483;SDS011;15704;48.834;8.736;2023-05-07T00:01:20;2.53;;;1.95;;
28483;SDS011;15704;48.834;8.736;2023-05-07T00:03:47;3.55;;;2.22;;
28483;SDS011;15704;48.834;8.736;2023-05-07T00:06:14;12.63;;;1.88;;
28483;SDS011;15704;48.834;8.736;2023-05-07T00:08:41;5.75;;;1.95;;
28483;SDS011;15704;48.834;8.736;2023-05-07T00:11:07;5.50;;;2.60;;
28483;SDS011;15704;48.834;8.736;2023-05-07T00:13:34;2.53;;;1.80;;
28483;SDS011;15704;48.834;8.736;2023-05-07T00:16:02;5.15;;;2.50;;
28483;SDS011;15704;48.834;8.736;2023-05-07T00:18:29;2.38;;;1.85;;
28483;SDS011;15704;48.834;8.736;2023-05-07T00:20:56;3.45;;;2.10;;
28483;SDS011;15704;48.834;8.736;2023-05-07T00:23:23;3.20;;;1.95;;
28483;SDS011;15704;48.834;8.736;2023-05-07T00:25:50;2.45;;;2.03;;
28483;SDS011;15704;48.834;8.736;2023-05-07T00:28:17;8.82;;;2.58;;
28483;SDS011;15704;48.834;8.736;2023-05-07T00:30:43;8.77;;;2.28;;
28483;SDS011;15704;48.834;8.736;2023-05-07T00:33:10;4.05;;;2.08;;
28483;SDS011;15704;48.834;8.736;2023-05-07T00:35:37;5.45;;;2.63;;
28483;SDS011;15704;48.834;8.736;2023-05-07T00:38:03;3.78;;;2.05;;
28483;SDS011;15704;48.834;8.736;2023-05-07T00:40:30;2.55;;;1.90;;
28483;SDS011;15704;48.834;8.736;2023-05-07T00:42:57;3.97;;;2.00;;
28483;SDS011;15704;48.834;8.736;2023-05-07T00:45:27;2.95;;;2.22;;
28483;SDS011;15704;48.834;8.736;2023-05-07T00:47:55;4.13;;;2.38;;
28483;SDS011;15704;48.834;8.736;2023-05-07T00:50:24;6.38;;;2.03;;
28483;SDS011;15704;48.834;8.736;2023-05-07T00:52:52;2.90;;;1.70;;
28483;SDS011;15704;48.834;8.736;2023-05-07T00:55:19;7.78;;;2.53;;
28483;SDS011;15704;48.834;8.736;2023-05-07T00:57:46;3.17;;;1.98;;
28483;SDS011;15704;48.834;8.736;2023-05-07T01:00:13;3.08;;;2.20;;
28483;SDS011;15704;48.834;8.736;2023-05-07T01:02:41;4.90;;;2.25;;
28483;SDS011;15704;48.834;8.736;2023-05-07T01:05:10;11.75;;;2.40;;
28483;SDS011;15704;48.834;8.736;2023-05-07T01:07:40;5.75;;;2.40;;
28483;SDS011;15704;48.834;8.736;2023-05-07T01:10:08;9.23;;;2.10;;
28483;SDS011;15704;48.834;8.736;2023-05-07T01:12:37;4.13;;;2.40;;
28483;SDS011;15704;48.834;8.736;2023-05-07T01:15:07;24.63;;;13.02;;
28483;SDS011;15704;48.834;8.736;2023-05-07T01:17:39;37.55;;;19.00;;
28483;SDS011;15704;48.834;8.736;2023-05-07T01:20:07;17.13;;;8.55;;
28483;SDS011;15704;48.834;8.736;2023-05-07T01:22:37;7.50;;;3.83;;
28483;SDS011;15704;48.834;8.736;2023-05-07T01:25:05;4.50;;;2.67;;
28483;SDS011;15704;48.834;8.736;2023-05-07T01:27:33;5.53;;;2.88;;
28483;SDS011;15704;48.834;8.736;2023-05-07T01:30:01;6.97;;;2.55;;
28483;SDS011;15704;48.834;8.736;2023-05-07T01:32:31;5.63;;;2.33;;
28483;SDS011;15704;48.834;8.736;2023-05-07T01:35:01;3.25;;;2.10;;
28483;SDS011;15704;48.834;8.736;2023-05-07T01:37:31;6.40;;;2.38;;
28483;SDS011;15704;48.834;8.736;2023-05-07T01:39:58;42.60;;;19.20;;
28483;SDS011;15704;48.834;8.736;2023-05-07T01:42:27;126.97;;;48.67;;
28483;SDS011;15704;48.834;8.736;2023-05-07T01:44:54;239.77;;;87.57;;
28483;SDS011;15704;48.834;8.736;2023-05-07T01:47:21;157.35;;;60.75;;
28483;SDS011;15704;48.834;8.736;2023-05-07T01:49:50;154.43;;;61.22;;
28483;SDS011;15704;48.834;8.736;2023-05-07T01:52:17;127.40;;;48.80;;
28483;SDS011;15704;48.834;8.736;2023-05-07T01:54:43;124.13;;;50.42;;
28483;SDS011;15704;48.834;8.736;2023-05-07T01:57:10;109.35;;;48.85;;
28483;SDS011;15704;48.834;8.736;2023-05-07T01:59:37;105.60;;;51.42;;
28483;SDS011;15704;48.834;8.736;2023-05-07T02:02:03;77.45;;;39.80;;
28483;SDS011;15704;48.834;8.736;2023-05-07T02:04:30;62.42;;;33.58;;
28483;SDS011;15704;48.834;8.736;2023-05-07T02:06:57;46.20;;;27.20;;
28483;SDS011;15704;48.834;8.736;2023-05-07T02:09:24;35.80;;;22.05;;
28483;SDS011;15704;48.834;8.736;2023-05-07T02:11:50;31.10;;;18.52;;
28483;SDS011;15704;48.834;8.736;2023-05-07T02:14:17;30.15;;;17.08;;
28483;SDS011;15704;48.834;8.736;2023-05-07T02:16:46;21.67;;;14.15;;
28483;SDS011;15704;48.834;8.736;2023-05-07T02:19:13;18.67;;;10.73;;
28483;SDS011;15704;48.834;8.736;2023-05-07T02:21:39;14.80;;;9.52;;
28483;SDS011;15704;48.834;8.736;2023-05-07T02:24:06;12.57;;;7.63;;
28483;SDS011;15704;48.834;8.736;2023-05-07T02:26:33;7.53;;;5.55;;
28483;SDS011;15704;48.834;8.736;2023-05-07T02:29:00;5.30;;;3.85;;
28483;SDS011;15704;48.834;8.736;2023-05-07T02:31:26;7.85;;;3.60;;
28483;SDS011;15704;48.834;8.736;2023-05-07T02:33:53;5.05;;;3.03;;
28483;SDS011;15704;48.834;8.736;2023-05-07T02:36:20;5.38;;;2.90;;
28483;SDS011;15704;48.834;8.736;2023-05-07T02:38:46;4.18;;;3.10;;
28483;SDS011;15704;48.834;8.736;2023-05-07T02:41:13;7.03;;;3.05;;
28483;SDS011;15704;48.834;8.736;2023-05-07T02:43:40;12.98;;;3.92;;
28483;SDS011;15704;48.834;8.736;2023-05-07T02:46:07;6.25;;;3.70;;
28483;SDS011;15704;48.834;8.736;2023-05-07T02:48:34;6.22;;;2.97;;
28483;SDS011;15704;48.834;8.736;2023-05-07T02:51:02;4.43;;;2.97;;
28483;SDS011;15704;48.834;8.736;2023-05-07T02:53:30;4.88;;;2.72;;
28483;SDS011;15704;48.834;8.736;2023-05-07T02:55:57;3.05;;;2.47;;
28483;SDS011;15704;48.834;8.736;2023-05-07T02:58:25;5.20;;;2.28;;
28483;SDS011;15704;48.834;8.736;2023-05-07T03:00:52;3.47;;;2.33;;
28483;SDS011;15704;48.834;8.736;2023-05-07T03:03:20;3.78;;;2.50;;
28483;SDS011;15704;48.834;8.736;2023-05-07T03:05:47;9.15;;;2.63;;
28483;SDS011;15704;48.834;8.736;2023-05-07T03:08:14;4.90;;;2.80;;
28483;SDS011;15704;48.834;8.736;2023-05-07T03:10:41;5.97;;;2.50;;
28483;SDS011;15704;48.834;8.736;2023-05-07T03:13:08;5.10;;;2.60;;
28483;SDS011;15704;48.834;8.736;2023-05-07T03:15:35;3.88;;;2.38;;
28483;SDS011;15704;48.834;8.736;2023-05-07T03:18:01;8.85;;;2.83;;
28483;SDS011;15704;48.834;8.736;2023-05-07T03:20:28;11.13;;;2.63;;
28483;SDS011;15704;48.834;8.736;2023-05-07T03:22:56;4.45;;;2.63;;
28483;SDS011;15704;48.834;8.736;2023-05-07T03:25:22;8.57;;;2.20;;
28483;SDS011;15704;48.834;8.736;2023-05-07T03:27:49;7.32;;;2.45;;
28483;SDS011;15704;48.834;8.736;2023-05-07T03:30:16;3.20;;;2.03;;
28483;SDS011;15704;48.834;8.736;2023-05-07T03:32:43;3.22;;;2.30;;
28483;SDS011;15704;48.834;8.736;2023-05-07T03:35:09;3.63;;;2.42;;
28483;SDS011;15704;48.834;8.736;2023-05-07T03:37:37;4.38;;;2.83;;
28483;SDS011;15704;48.834;8.736;2023-05-07T03:40:04;7.43;;;2.78;;
28483;SDS011;15704;48.834;8.736;2023-05-07T03:42:32;3.22;;;2.42;;
28483;SDS011;15704;48.834;8.736;2023-05-07T03:44:58;6.05;;;2.60;;
28483;SDS011;15704;48.834;8.736;2023-05-07T03:47:25;5.18;;;2.63;;
28483;SDS011;15704;48.834;8.736;2023-05-07T03:49:51;3.53;;;2.47;;
28483;SDS011;15704;48.834;8.736;2023-05-07T03:52:20;9.30;;;3.22;;
28483;SDS011;15704;48.834;8.736;2023-05-07T03:54:50;3.45;;;2.45;;
28483;SDS011;15704;48.834;8.736;2023-05-07T03:57:18;4.90;;;2.35;;
28483;SDS011;15704;48.834;8.736;2023-05-07T03:59:45;5.10;;;2.53;;
28483;SDS011;15704;48.834;8.736;2023-05-07T04:02:11;7.47;;;2.53;;
28483;SDS011;15704;48.834;8.736;2023-05-07T04:04:38;3.90;;;2.45;;
28483;SDS011;15704;48.834;8.736;2023-05-07T04:07:05;3.60;;;2.30;;
28483;SDS011;15704;48.834;8.736;2023-05-07T04:09:31;3.42;;;2.20;;
28483;SDS011;15704;48.834;8.736;2023-05-07T04:11:58;4.38;;;2.65;;
28483;SDS011;15704;48.834;8.736;2023-05-07T04:14:25;3.63;;;2.78;;
28483;SDS011;15704;48.834;8.736;2023-05-07T04:16:51;4.47;;;2.15;;
28483;SDS011;15704;48.834;8.736;2023-05-07T04:19:18;5.22;;;2.60;;
28483;SDS011;15704;48.834;8.736;2023-05-07T04:21:46;4.38;;;2.50;;
28483;SDS011;15704;48.834;8.736;2023-05-07T04:24:13;5.90;;;2.50;;
28483;SDS011;15704;48.834;8.736;2023-05-07T04:26:40;6.07;;;2.17;;
28483;SDS011;15704;48.834;8.736;2023-05-07T04:29:06;9.35;;;2.22;;
28483;SDS011;15704;48.834;8.736;2023-05-07T04:31:33;4.78;;;2.88;;
28483;SDS011;15704;48.834;8.736;2023-05-07T04:34:00;5.88;;;2.22;;
28483;SDS011;15704;48.834;8.736;2023-05-07T04:36:27;2.97;;;2.35;;
28483;SDS011;15704;48.834;8.736;2023-05-07T04:38:54;4.00;;;2.08;;
28483;SDS011;15704;48.834;8.736;2023-05-07T04:41:20;3.13;;;2.22;;
28483;SDS011;15704;48.834;8.736;2023-05-07T04:43:47;4.60;;;2.40;;
28483;SDS011;15704;48.834;8.736;2023-05-07T04:46:14;7.68;;;2.88;;
28483;SDS011;15704;48.834;8.736;2023-05-07T04:48:41;5.30;;;2.47;;
28483;SDS011;15704;48.834;8.736;2023-05-07T04:51:07;4.85;;;2.08;;
28483;SDS011;15704;48.834;8.736;2023-05-07T04:53:34;8.43;;;2.65;;
28483;SDS011;15704;48.834;8.736;2023-05-07T04:56:01;4.15;;;2.17;;
28483;SDS011;15704;48.834;8.736;2023-05-07T04:58:27;8.23;;;3.38;;
28483;SDS011;15704;48.834;8.736;2023-05-07T05:00:58;2.38;;;1.75;;
28483;SDS011;15704;48.834;8.736;2023-05-07T05:03:25;3.25;;;2.03;;
28483;SDS011;15704;48.834;8.736;2023-05-07T05:05:52;3.25;;;2.15;;
28483;SDS011;15704;48.834;8.736;2023-05-07T05:08:19;4.40;;;2.28;;
28483;SDS011;15704;48.834;8.736;2023-05-07T05:10:46;4.72;;;2.20;;
28483;SDS011;15704;48.834;8.736;2023-05-07T05:13:14;4.57;;;1.77;;
28483;SDS011;15704;48.834;8.736;2023-05-07T05:15:41;2.88;;;1.85;;
28483;SDS011;15704;48.834;8.736;2023-05-07T05:18:08;8.25;;;2.15;;
28483;SDS011;15704;48.834;8.736;2023-05-07T05:20:35;2.72;;;2.00;;
28483;SDS011;15704;48.834;8.736;2023-05-07T05:23:02;3.25;;;1.65;;
28483;SDS011;15704;48.834;8.736;2023-05-07T05:25:28;4.80;;;1.90;;
28483;SDS011;15704;48.834;8.736;2023-05-07T05:27:55;3.15;;;1.67;;
28483;SDS011;15704;48.834;8.736;2023-05-07T05:30:22;3.47;;;1.88;;
28483;SDS011;15704;48.834;8.736;2023-05-07T05:32:49;3.22;;;1.90;;
28483;SDS011;15704;48.834;8.736;2023-05-07T05:35:16;3.90;;;1.70;;
28483;SDS011;15704;48.834;8.736;2023-05-07T05:37:43;4.82;;;1.63;;
28483;SDS011;15704;48.834;8.736;2023-05-07T05:40:09;2.53;;;1.52;;
28483;SDS011;15704;48.834;8.736;2023-05-07T05:42:37;4.35;;;1.77;;
28483;SDS011;15704;48.834;8.736;2023-05-07T05:45:04;2.83;;;1.60;;
28483;SDS011;15704;48.834;8.736;2023-05-07T05:47:31;5.90;;;1.60;;
28483;SDS011;15704;48.834;8.736;2023-05-07T05:49:58;6.57;;;1.50;;
28483;SDS011;15704;48.834;8.736;2023-05-07T05:52:25;3.65;;;1.58;;
28483;SDS011;15704;48.834;8.736;2023-05-07T05:54:51;2.67;;;1.73;;
28483;SDS011;15704;48.834;8.736;2023-05-07T05:57:18;3.30;;;2.00;;
28483;SDS011;15704;48.834;8.736;2023-05-07T05:59:45;3.38;;;1.83;;
28483;SDS011;15704;48.834;8.736;2023-05-07T06:02:13;7.93;;;1.80;;
28483;SDS011;15704;48.834;8.736;2023-05-07T06:04:40;3.38;;;1.70;;
28483;SDS011;15704;48.834;8.736;2023-05-07T06:07:09;2.17;;;1.73;;
28483;SDS011;15704;48.834;8.736;2023-05-07T06:09:35;3.17;;;1.70;;
28483;SDS011;15704;48.834;8.736;2023-05-07T06:12:02;4.38;;;1.80;;
28483;SDS011;15704;48.834;8.736;2023-05-07T06:14:29;2.53;;;1.30;;
28483;SDS011;15704;48.834;8.736;2023-05-07T06:16:56;2.40;;;1.80;;
28483;SDS011;15704;48.834;8.736;2023-05-07T06:19:23;2.25;;;1.48;;
28483;SDS011;15704;48.834;8.736;2023-05-07T06:21:52;2.92;;;1.85;;
28483;SDS011;15704;48.834;8.736;2023-05-07T06:24:19;2.30;;;1.50;;
28483;SDS011;15704;48.834;8.736;2023-05-07T06:26:45;8.60;;;1.98;;
28483;SDS011;15704;48.834;8.736;2023-05-07T06:29:12;4.63;;;1.75;;
28483;SDS011;15704;48.834;8.736;2023-05-07T06:31:39;5.05;;;1.67;;
28483;SDS011;15704;48.834;8.736;2023-05-07T06:34:06;4.45;;;1.88;;
28483;SDS011;15704;48.834;8.736;2023-05-07T06:36:33;4.93;;;1.80;;
28483;SDS011;15704;48.834;8.736;2023-05-07T06:39:01;2.97;;;1.52;;
28483;SDS011;15704;48.834;8.736;2023-05-07T06:41:27;4.35;;;2.13;;
28483;SDS011;15704;48.834;8.736;2023-05-07T06:43:54;2.10;;;1.52;;
28483;SDS011;15704;48.834;8.736;2023-05-07T06:46:21;5.45;;;2.45;;
28483;SDS011;15704;48.834;8.736;2023-05-07T06:48:47;5.60;;;2.03;;
28483;SDS011;15704;48.834;8.736;2023-05-07T06:51:14;2.10;;;1.52;;
28483;SDS011;15704;48.834;8.736;2023-05-07T06:53:41;3.15;;;1.88;;
28483;SDS011;15704;48.834;8.736;2023-05-07T06:56:07;4.50;;;2.00;;
28483;SDS011;15704;48.834;8.736;2023-05-07T06:58:34;3.40;;;1.50;;
28483;SDS011;15704;48.834;8.736;2023-05-07T07:01:01;4.28;;;2.22;;
28483;SDS011;15704;48.834;8.736;2023-05-07T07:03:28;5.10;;;2.67;;
28483;SDS011;15704;48.834;8.736;2023-05-07T07:05:55;5.75;;;2.13;;
28483;SDS011;15704;48.834;8.736;2023-05-07T07:08:22;6.25;;;2.00;;
28483;SDS011;15704;48.834;8.736;2023-05-07T07:10:48;5.95;;;2.80;;
28483;SDS011;15704;48.834;8.736;2023-05-07T07:13:15;6.47;;;2.03;;
28483;SDS011;15704;48.834;8.736;2023-05-07T07:15:43;4.15;;;1.98;;
28483;SDS011;15704;48.834;8.736;2023-05-07T07:18:10;3.58;;;1.70;;
28483;SDS011;15704;48.834;8.736;2023-05-07T07:20:36;4.05;;;2.00;;
28483;SDS011;15704;48.834;8.736;2023-05-07T07:23:03;4.20;;;1.65;;
28483;SDS011;15704;48.834;8.736;2023-05-07T07:25:30;4.03;;;1.90;;
28483;SDS011;15704;48.834;8.736;2023-05-07T07:27:57;1.90;;;1.70;;
28483;SDS011;15704;48.834;8.736;2023-05-07T07:30:24;3.15;;;1.98;;
28483;SDS011;15704;48.834;8.736;2023-05-07T07:32:52;3.95;;;2.05;;
28483;SDS011;15704;48.834;8.736;2023-05-07T07:35:19;1.75;;;1.60;;
28483;SDS011;15704;48.834;8.736;2023-05-07T07:37:46;5.32;;;1.83;;
28483;SDS011;15704;48.834;8.736;2023-05-07T07:40:15;3.75;;;2.20;;
28483;SDS011;15704;48.834;8.736;2023-05-07T07:42:42;3.08;;;1.75;;
28483;SDS011;15704;48.834;8.736;2023-05-07T07:45:09;3.97;;;1.80;;
28483;SDS011;15704;48.834;8.736;2023-05-07T07:47:36;2.95;;;2.20;;
28483;SDS011;15704;48.834;8.736;2023-05-07T07:50:03;2.67;;;1.83;;
28483;SDS011;15704;48.834;8.736;2023-05-07T07:52:30;6.40;;;2.10;;
28483;SDS011;15704;48.834;8.736;2023-05-07T07:54:57;3.83;;;2.20;;
28483;SDS011;15704;48.834;8.736;2023-05-07T07:57:24;3.85;;;2.20;;
28483;SDS011;15704;48.834;8.736;2023-05-07T07:59:51;2.25;;;1.60;;
28483;SDS011;15704;48.834;8.736;2023-05-07T08:02:17;4.07;;;1.80;;
28483;SDS011;15704;48.834;8.736;2023-05-07T08:04:44;2.97;;;1.80;;
28483;SDS011;15704;48.834;8.736;2023-05-07T08:07:12;2.65;;;1.73;;
28483;SDS011;15704;48.834;8.736;2023-05-07T08:09:38;3.20;;;1.83;;
28483;SDS011;15704;48.834;8.736;2023-05-07T08:12:06;7.40;;;1.77;;
28483;SDS011;15704;48.834;8.736;2023-05-07T08:14:33;3.13;;;1.90;;
28483;SDS011;15704;48.834;8.736;2023-05-07T08:17:02;5.40;;;1.73;;
28483;SDS011;15704;48.834;8.736;2023-05-07T08:19:29;3.08;;;1.70;;
28483;SDS011;15704;48.834;8.736;2023-05-07T08:21:56;4.32;;;1.63;;
28483;SDS011;15704;48.834;8.736;2023-05-07T08:24:23;3.08;;;1.65;;
28483;SDS011;15704;48.834;8.736;2023-05-07T08:26:49;1.98;;;1.40;;
28483;SDS011;15704;48.834;8.736;2023-05-07T08:29:16;2.70;;;1.65;;
28483;SDS011;15704;48.834;8.736;2023-05-07T08:31:43;3.45;;;1.67;;
28483;SDS011;15704;48.834;8.736;2023-05-07T08:34:10;5.50;;;1.60;;
28483;SDS011;15704;48.834;8.736;2023-05-07T08:36:36;2.25;;;1.70;;
28483;SDS011;15704;48.834;8.736;2023-05-07T08:39:03;6.10;;;2.10;;
28483;SDS011;15704;48.834;8.736;2023-05-07T08:41:30;5.13;;;1.73;;
28483;SDS011;15704;48.834;8.736;2023-05-07T08:43:57;5.07;;;1.88;;
28483;SDS011;15704;48.834;8.736;2023-05-07T08:46:29;5.10;;;1.80;;
28483;SDS011;15704;48.834;8.736;2023-05-07T08:48:58;2.58;;;1.42;;
28483;SDS011;15704;48.834;8.736;2023-05-07T08:51:24;4.57;;;1.67;;
28483;SDS011;15704;48.834;8.736;2023-05-07T08:53:51;6.65;;;1.98;;
28483;SDS011;15704;48.834;8.736;2023-05-07T08:56:18;5.18;;;2.03;;
28483;SDS011;15704;48.834;8.736;2023-05-07T08:58:47;6.07;;;1.60;;
28483;SDS011;15704;48.834;8.736;2023-05-07T09:01:15;1.83;;;1.50;;
28483;SDS011;15704;48.834;8.736;2023-05-07T09:03:46;5.85;;;1.85;;
28483;SDS011;15704;48.834;8.736;2023-05-07T09:06:13;4.30;;;1.42;;
28483;SDS011;15704;48.834;8.736;2023-05-07T09:08:41;2.47;;;1.67;;
28483;SDS011;15704;48.834;8.736;2023-05-07T09:11:21;4.38;;;1.60;;
28483;SDS011;15704;48.834;8.736;2023-05-07T09:13:49;2.58;;;1.85;;
28483;SDS011;15704;48.834;8.736;2023-05-07T09:18:50;4.13;;;1.50;;
28483;SDS011;15704;48.834;8.736;2023-05-07T09:21:19;3.55;;;1.63;;
28483;SDS011;15704;48.834;8.736;2023-05-07T09:23:52;3.33;;;1.60;;
28483;SDS011;15704;48.834;8.736;2023-05-07T09:26:24;2.27;;;1.37;;
28483;SDS011;15704;48.834;8.736;2023-05-07T09:28:51;2.60;;;1.65;;
28483;SDS011;15704;48.834;8.736;2023-05-07T09:31:18;7.60;;;1.73;;
28483;SDS011;15704;48.834;8.736;2023-05-07T09:33:47;8.98;;;3.17;;
28483;SDS011;15704;48.834;8.736;2023-05-07T09:36:13;4.38;;;1.70;;
28483;SDS011;15704;48.834;8.736;2023-05-07T09:38:41;2.15;;;1.73;;
28483;SDS011;15704;48.834;8.736;2023-05-07T09:41:09;7.72;;;3.05;;
28483;SDS011;15704;48.834;8.736;2023-05-07T09:43:38;2.90;;;1.83;;
28483;SDS011;15704;48.834;8.736;2023-05-07T09:46:07;3.50;;;1.70;;
28483;SDS011;15704;48.834;8.736;2023-05-07T09:48:38;2.25;;;1.77;;
28483;SDS011;15704;48.834;8.736;2023-05-07T09:51:09;2.03;;;1.75;;
28483;SDS011;15704;48.834;8.736;2023-05-07T09:53:38;2.78;;;1.73;;
28483;SDS011;15704;48.834;8.736;2023-05-07T09:56:07;1.70;;;1.60;;
28483;SDS011;15704;48.834;8.736;2023-05-07T09:58:34;3.65;;;1.88;;
28483;SDS011;15704;48.834;8.736;2023-05-07T10:01:03;2.28;;;1.70;;
28483;SDS011;15704;48.834;8.736;2023-05-07T10:03:31;5.15;;;2.10;;
28483;SDS011;15704;48.834;8.736;2023-05-07T10:06:01;3.00;;;1.85;;
28483;SDS011;15704;48.834;8.736;2023-05-07T10:08:30;2.60;;;1.70;;
28483;SDS011;15704;48.834;8.736;2023-05-07T10:10:57;3.83;;;1.90;;
28483;SDS011;15704;48.834;8.736;2023-05-07T10:13:23;8.10;;;2.28;;
28483;SDS011;15704;48.834;8.736;2023-05-07T10:15:50;3.67;;;2.22;;
28483;SDS011;15704;48.834;8.736;2023-05-07T10:18:17;3.63;;;1.92;;
28483;SDS011;15704;48.834;8.736;2023-05-07T10:20:48;6.20;;;2.40;;
28483;SDS011;15704;48.834;8.736;2023-05-07T10:23:19;2.78;;;2.20;;
28483;SDS011;15704;48.834;8.736;2023-05-07T10:25:49;6.75;;;2.33;;
28483;SDS011;15704;48.834;8.736;2023-05-07T10:28:22;4.93;;;1.70;;
28483;SDS011;15704;48.834;8.736;2023-05-07T10:33:45;4.00;;;2.70;;
28483;SDS011;15704;48.834;8.736;2023-05-07T10:36:14;6.28;;;3.03;;
28483;SDS011;15704;48.834;8.736;2023-05-07T10:38:41;2.95;;;2.33;;
28483;SDS011;15704;48.834;8.736;2023-05-07T10:41:09;5.95;;;2.75;;
28483;SDS011;15704;48.834;8.736;2023-05-07T10:43:40;4.53;;;2.75;;
28483;SDS011;15704;48.834;8.736;2023-05-07T10:46:14;8.00;;;2.90;;
28483;SDS011;15704;48.834;8.736;2023-05-07T10:51:27;5.68;;;2.90;;
28483;SDS011;15704;48.834;8.736;2023-05-07T10:56:39;8.77;;;3.88;;
28483;SDS011;15704;48.834;8.736;2023-05-07T11:01:56;6.72;;;3.22;;
28483;SDS011;15704;48.834;8.736;2023-05-07T11:04:25;5.65;;;3.30;;
28483;SDS011;15704;48.834;8.736;2023-05-07T11:15:07;6.93;;;2.60;;
28483;SDS011;15704;48.834;8.736;2023-05-07T11:17:51;3.03;;;2.28;;
28483;SDS011;15704;48.834;8.736;2023-05-07T11:20:19;4.80;;;2.90;;
28483;SDS011;15704;48.834;8.736;2023-05-07T11:22:47;10.30;;;3.78;;
28483;SDS011;15704;48.834;8.736;2023-05-07T11:25:17;3.50;;;2.50;;
28483;SDS011;15704;48.834;8.736;2023-05-07T11:27:45;12.68;;;5.90;;
28483;SDS011;15704;48.834;8.736;2023-05-07T11:30:18;7.10;;;3.03;;
28483;SDS011;15704;48.834;8.736;2023-05-07T11:32:47;6.38;;;2.45;;
28483;SDS011;15704;48.834;8.736;2023-05-07T11:35:14;4.07;;;2.22;;
28483;SDS011;15704;48.834;8.736;2023-05-07T11:37:42;8.00;;;2.58;;
28483;SDS011;15704;48.834;8.736;2023-05-07T11:40:11;6.10;;;2.75;;
28483;SDS011;15704;48.834;8.736;2023-05-07T11:42:40;3.90;;;2.72;;
28483;SDS011;15704;48.834;8.736;2023-05-07T11:45:09;4.10;;;2.40;;
28483;SDS011;15704;48.834;8.736;2023-05-07T11:47:37;2.72;;;2.13;;
28483;SDS011;15704;48.834;8.736;2023-05-07T11:50:05;3.97;;;2.60;;
28483;SDS011;15704;48.834;8.736;2023-05-07T11:52:33;4.65;;;2.33;;
28483;SDS011;15704;48.834;8.736;2023-05-07T11:55:01;5.22;;;2.65;;
28483;SDS011;15704;48.834;8.736;2023-05-07T11:57:29;3.20;;;2.13;;
28483;SDS011;15704;48.834;8.736;2023-05-07T11:59:56;4.20;;;2.40;;
28483;SDS011;15704;48.834;8.736;2023-05-07T12:02:24;6.35;;;2.10;;
28483;SDS011;15704;48.834;8.736;2023-05-07T12:04:52;3.83;;;2.70;;
28483;SDS011;15704;48.834;8.736;2023-05-07T12:07:19;3.40;;;2.47;;
28483;SDS011;15704;48.834;8.736;2023-05-07T12:09:47;3.17;;;2.08;;
28483;SDS011;15704;48.834;8.736;2023-05-07T12:12:14;5.93;;;2.00;;
28483;SDS011;15704;48.834;8.736;2023-05-07T12:14:45;2.97;;;1.20;;
28483;SDS011;15704;48.834;8.736;2023-05-07T12:17:13;4.40;;;1.27;;
28483;SDS011;15704;48.834;8.736;2023-05-07T12:19:41;2.45;;;1.17;;
28483;SDS011;15704;48.834;8.736;2023-05-07T12:22:10;0.98;;;0.80;;
28483;SDS011;15704;48.834;8.736;2023-05-07T12:24:48;2.65;;;0.95;;
28483;SDS011;15704;48.834;8.736;2023-05-07T12:27:26;3.13;;;0.90;;
28483;SDS011;15704;48.834;8.736;2023-05-07T12:29:52;2.97;;;0.90;;
28483;SDS011;15704;48.834;8.736;2023-05-07T12:32:20;1.75;;;1.25;;
28483;SDS011;15704;48.834;8.736;2023-05-07T12:34:50;2.13;;;0.90;;
28483;SDS011;15704;48.834;8.736;2023-05-07T12:37:22;1.42;;;0.90;;
28483;SDS011;15704;48.834;8.736;2023-05-07T12:40:09;3.88;;;1.23;;
28483;SDS011;15704;48.834;8.736;2023-05-07T12:42:37;2.00;;;1.10;;
28483;SDS011;15704;48.834;8.736;2023-05-07T12:45:12;1.80;;;1.30;;
28483;SDS011;15704;48.834;8.736;2023-05-07T12:47:46;2.58;;;1.38;;
28483;SDS011;15704;48.834;8.736;2023-05-07T12:50:13;6.18;;;1.33;;
28483;SDS011;15704;48.834;8.736;2023-05-07T12:52:42;11.27;;;1.45;;
28483;SDS011;15704;48.834;8.736;2023-05-07T12:55:12;3.95;;;1.50;;
28483;SDS011;15704;48.834;8.736;2023-05-07T12:57:41;5.97;;;1.70;;
28483;SDS011;15704;48.834;8.736;2023-05-07T13:00:09;4.28;;;2.00;;
28483;SDS011;15704;48.834;8.736;2023-05-07T13:02:40;2.83;;;1.30;;
28483;SDS011;15704;48.834;8.736;2023-05-07T13:05:10;3.63;;;1.80;;
28483;SDS011;15704;48.834;8.736;2023-05-07T13:07:37;4.45;;;1.98;;
28483;SDS011;15704;48.834;8.736;2023-05-07T13:10:05;2.22;;;1.42;;
28483;SDS011;15704;48.834;8.736;2023-05-07T13:12:32;2.67;;;1.50;;
28483;SDS011;15704;48.834;8.736;2023-05-07T13:14:59;3.30;;;1.50;;
28483;SDS011;15704;48.834;8.736;2023-05-07T13:17:25;3.72;;;1.92;;
28483;SDS011;15704;48.834;8.736;2023-05-07T13:19:52;2.67;;;1.40;;
28483;SDS011;15704;48.834;8.736;2023-05-07T13:22:19;4.75;;;1.55;;
28483;SDS011;15704;48.834;8.736;2023-05-07T13:24:46;3.58;;;1.73;;
28483;SDS011;15704;48.834;8.736;2023-05-07T13:27:12;2.92;;;1.80;;
28483;SDS011;15704;48.834;8.736;2023-05-07T13:29:39;8.02;;;1.67;;
28483;SDS011;15704;48.834;8.736;2023-05-07T13:32:06;3.55;;;1.98;;
28483;SDS011;15704;48.834;8.736;2023-05-07T13:34:33;3.45;;;1.55;;
28483;SDS011;15704;48.834;8.736;2023-05-07T13:36:59;2.50;;;1.63;;
28483;SDS011;15704;48.834;8.736;2023-05-07T13:39:27;5.10;;;1.80;;
28483;SDS011;15704;48.834;8.736;2023-05-07T13:41:53;2.17;;;1.50;;
28483;SDS011;15704;48.834;8.736;2023-05-07T13:44:20;7.47;;;2.60;;
28483;SDS011;15704;48.834;8.736;2023-05-07T13:46:47;5.38;;;2.10;;
28483;SDS011;15704;48.834;8.736;2023-05-07T13:49:14;5.38;;;1.70;;
28483;SDS011;15704;48.834;8.736;2023-05-07T13:51:40;6.50;;;2.03;;
28483;SDS011;15704;48.834;8.736;2023-05-07T13:54:07;2.80;;;1.52;;
28483;SDS011;15704;48.834;8.736;2023-05-07T13:56:34;5.10;;;2.15;;
28483;SDS011;15704;48.834;8.736;2023-05-07T13:59:01;7.18;;;1.73;;
28483;SDS011;15704;48.834;8.736;2023-05-07T14:01:28;6.55;;;2.60;;
28483;SDS011;15704;48.834;8.736;2023-05-07T14:03:55;6.00;;;2.60;;
28483;SDS011;15704;48.834;8.736;2023-05-07T14:06:23;4.57;;;1.70;;
28483;SDS011;15704;48.834;8.736;2023-05-07T14:08:50;4.65;;;2.35;;
28483;SDS011;15704;48.834;8.736;2023-05-07T14:11:17;3.50;;;1.90;;
28483;SDS011;15704;48.834;8.736;2023-05-07T14:13:44;2.25;;;1.35;;
28483;SDS011;15704;48.834;8.736;2023-05-07T14:16:11;4.43;;;1.80;;
28483;SDS011;15704;48.834;8.736;2023-05-07T14:18:37;4.60;;;1.80;;
28483;SDS011;15704;48.834;8.736;2023-05-07T14:21:04;4.72;;;1.90;;
28483;SDS011;15704;48.834;8.736;2023-05-07T14:23:35;3.40;;;1.60;;
28483;SDS011;15704;48.834;8.736;2023-05-07T14:26:02;2.80;;;1.58;;
28483;SDS011;15704;48.834;8.736;2023-05-07T14:28:29;3.83;;;1.40;;
28483;SDS011;15704;48.834;8.736;2023-05-07T14:30:56;4.47;;;1.20;;
28483;SDS011;15704;48.834;8.736;2023-05-07T14:33:23;1.63;;;1.20;;
28483;SDS011;15704;48.834;8.736;2023-05-07T14:35:49;6.72;;;1.60;;
28483;SDS011;15704;48.834;8.736;2023-05-07T14:38:16;2.65;;;1.20;;
28483;SDS011;15704;48.834;8.736;2023-05-07T14:40:43;3.38;;;1.50;;
28483;SDS011;15704;48.834;8.736;2023-05-07T14:43:10;3.00;;;1.10;;
28483;SDS011;15704;48.834;8.736;2023-05-07T14:45:37;3.65;;;1.67;;
28483;SDS011;15704;48.834;8.736;2023-05-07T14:48:04;6.20;;;2.15;;
28483;SDS011;15704;48.834;8.736;2023-05-07T14:50:31;4.13;;;1.40;;
28483;SDS011;15704;48.834;8.736;2023-05-07T14:52:58;1.90;;;1.30;;
28483;SDS011;15704;48.834;8.736;2023-05-07T14:55:24;2.38;;;1.27;;
28483;SDS011;15704;48.834;8.736;2023-05-07T14:57:51;8.10;;;1.60;;
28483;SDS011;15704;48.834;8.736;2023-05-07T15:00:18;3.58;;;1.60;;
28483;SDS011;15704;48.834;8.736;2023-05-07T15:02:45;5.63;;;1.40;;
28483;SDS011;15704;48.834;8.736;2023-05-07T15:05:11;2.58;;;1.52;;
28483;SDS011;15704;48.834;8.736;2023-05-07T15:07:40;3.22;;;1.63;;
28483;SDS011;15704;48.834;8.736;2023-05-07T15:10:07;4.93;;;1.80;;